Time;durP1;ratioP1;P1;durP2;ratioP2;P2;SDS_P1;SDS_P2;PMS_P1;PMS_P2;Temp;Humidity;BMP_temperature;BMP_pressure;BME280_temperature;BME280_humidity;BME280_pressure;Samples;Min_cycle;Max_cycle;Signal;HPM_P1;HPM_P2
2020/12/06 00:03:18;;;;;;;62.17;28.80;;;;;;;2.52;100.00;98745.84;10435594;28;20053;-71
2020/12/06 00:08:18;;;;;;;54.95;26.92;;;;;;;2.36;100.00;98747.47;10454503;28;20463;-70
2020/12/06 00:13:19;;;;;;;58.15;27.33;;;;;;;2.39;100.00;98775.72;10453783;28;20045;-70
2020/12/06 00:18:20;;;;;;;60.25;29.88;;;;;;;2.43;100.00;98772.09;10454298;28;20053;-71
2020/12/06 00:23:22;;;;;;;62.17;29.63;;;;;;;2.46;100.00;98757.28;10453759;28;20049;-70
2020/12/06 00:28:23;;;;;;;65.05;29.35;;;;;;;2.42;100.00;98737.69;10437148;28;20633;-70
2020/12/06 00:33:24;;;;;;;62.22;28.70;;;;;;;2.41;100.00;98753.25;10470799;28;20056;-69
2020/12/06 00:38:25;;;;;;;59.67;27.27;;;;;;;2.56;100.00;98757.69;10452791;28;20127;-70
2020/12/06 00:43:26;;;;;;;66.75;29.13;;;;;;;2.55;100.00;98756.00;10435281;28;20060;-69
2020/12/06 00:48:27;;;;;;;62.15;29.80;;;;;;;2.44;100.00;98759.09;10452641;28;20052;-70
2020/12/06 00:53:28;;;;;;;58.25;29.80;;;;;;;2.49;100.00;98756.28;10453602;28;20056;-70
2020/12/06 00:58:28;;;;;;;63.03;30.80;;;;;;;2.57;100.00;98729.22;10491925;28;20495;-70
2020/12/06 01:03:29;;;;;;;57.08;29.90;;;;;;;2.43;100.00;98695.50;10492262;28;20568;-70
2020/12/06 01:08:30;;;;;;;59.00;31.38;;;;;;;2.33;100.00;98699.44;10492802;28;20115;-70
2020/12/06 01:13:32;;;;;;;59.22;30.35;;;;;;;2.29;100.00;98705.63;10475090;28;20052;-70
2020/12/06 01:18:33;;;;;;;56.72;29.98;;;;;;;2.10;100.00;98695.34;10493378;28;20048;-70
2020/12/06 01:23:34;;;;;;;55.78;29.13;;;;;;;2.26;100.00;98717.84;10492718;28;20095;-71
2020/12/06 01:28:35;;;;;;;56.63;29.60;;;;;;;2.21;100.00;98749.03;10492854;28;20419;-70
2020/12/06 01:33:36;;;;;;;61.47;31.65;;;;;;;2.23;100.00;98749.81;10491741;28;20411;-71
2020/12/06 01:38:37;;;;;;;65.82;31.88;;;;;;;2.28;100.00;98755.59;10492241;28;20056;-70
2020/12/06 01:43:38;;;;;;;63.60;31.15;;;;;;;2.20;100.00;98760.25;10492345;28;20048;-70
2020/12/06 01:48:38;;;;;;;64.47;30.48;;;;;;;2.15;100.00;98751.91;10492291;28;20500;-70
2020/12/06 01:53:39;;;;;;;68.35;33.55;;;;;;;2.08;100.00;98748.75;10492112;28;20041;-70
2020/12/06 01:58:40;;;;;;;72.15;32.83;;;;;;;2.22;100.00;98760.19;10491949;28;20059;-70
2020/12/06 02:03:41;;;;;;;71.35;33.00;;;;;;;2.26;100.00;98741.91;10490754;28;20075;-70
2020/12/06 02:08:42;;;;;;;78.60;34.03;;;;;;;2.13;100.00;98733.09;10492409;28;20385;-70
2020/12/06 02:13:44;;;;;;;75.82;34.67;;;;;;;2.07;100.00;98744.53;10491557;28;20059;-70
2020/12/06 02:18:45;;;;;;;85.03;35.63;;;;;;;2.18;100.00;98762.09;10494961;28;20488;-69
2020/12/06 02:23:46;;;;;;;85.28;34.53;;;;;;;2.23;100.00;98774.78;10499782;28;20054;-70
2020/12/06 02:28:48;;;;;;;84.20;35.30;;;;;;;2.14;100.00;98760.53;10499816;28;20048;-70
2020/12/06 02:33:49;;;;;;;91.78;35.65;;;;;;;2.13;100.00;98725.34;10498204;28;20060;-70
2020/12/06 02:38:51;;;;;;;94.75;36.70;;;;;;;2.29;100.00;98741.75;10499649;28;20102;-71
2020/12/06 02:43:51;;;;;;;83.47;35.10;;;;;;;2.11;100.00;98740.06;10499845;28;20484;-70
2020/12/06 02:48:52;;;;;;;90.20;36.30;;;;;;;2.15;100.00;98720.94;10503420;28;20132;-70
2020/12/06 02:53:54;;;;;;;94.18;36.25;;;;;;;2.18;100.00;98715.66;10512625;28;20139;-70
2020/12/06 02:58:55;;;;;;;93.07;38.08;;;;;;;2.22;100.00;98708.59;10515363;28;20059;-71
2020/12/06 03:03:56;;;;;;;93.90;35.90;;;;;;;2.16;100.00;98696.81;10505673;28;20068;-70
2020/12/06 03:08:57;;;;;;;88.60;36.03;;;;;;;2.20;100.00;98713.81;10498791;28;20048;-70
2020/12/06 03:13:58;;;;;;;104.80;40.83;;;;;;;2.26;100.00;98718.69;10497465;28;20052;-70
2020/12/06 03:18:59;;;;;;;95.78;36.05;;;;;;;2.27;100.00;98719.53;10497917;28;20098;-71
2020/12/06 03:24:00;;;;;;;98.95;36.42;;;;;;;2.29;100.00;98723.69;10497716;28;20055;-71
2020/12/06 03:29:01;;;;;;;101.68;37.97;;;;;;;2.27;100.00;98712.63;10496529;28;20056;-71
2020/12/06 03:34:02;;;;;;;93.15;38.10;;;;;;;2.26;100.00;98687.72;10496410;28;20040;-70
2020/12/06 03:39:03;;;;;;;86.60;35.90;;;;;;;2.28;100.00;98672.16;10496963;28;20052;-71
2020/12/06 03:44:04;;;;;;;96.97;36.47;;;;;;;2.33;100.00;98678.78;10496608;28;20721;-70
2020/12/06 03:49:05;;;;;;;88.07;34.67;;;;;;;2.33;100.00;98690.84;10496867;28;20504;-70
2020/12/06 03:54:06;;;;;;;94.57;36.13;;;;;;;2.28;100.00;98700.56;10496229;28;20049;-69
2020/12/06 03:59:07;;;;;;;85.45;34.25;;;;;;;2.31;100.00;98693.50;10496096;28;20048;-70
2020/12/06 04:04:08;;;;;;;87.97;33.35;;;;;;;2.33;100.00;98698.59;10492705;28;20055;-70
2020/12/06 04:09:09;;;;;;;77.07;31.58;;;;;;;2.30;100.00;98680.66;10493264;28;20054;-69
2020/12/06 04:14:09;;;;;;;77.10;31.20;;;;;;;2.29;100.00;98677.22;10549204;22;20079;-69
2020/12/06 04:19:11;;;;;;;77.30;29.85;;;;;;;2.24;100.00;98710.16;10537692;28;20437;-69
2020/12/06 04:24:12;;;;;;;73.03;27.45;;;;;;;2.37;100.00;98726.75;10505772;28;20102;-70
2020/12/06 04:29:13;;;;;;;71.22;28.27;;;;;;;2.35;100.00;98725.97;10494947;28;20071;-70
2020/12/06 04:34:14;;;;;;;65.57;27.60;;;;;;;2.35;100.00;98715.66;10493532;28;20049;-70
2020/12/06 04:39:15;;;;;;;64.57;26.90;;;;;;;2.35;100.00;98707.91;10494269;28;20071;-70
2020/12/06 04:44:15;;;;;;;65.78;27.70;;;;;;;2.35;100.00;98723.41;10493598;28;20506;-70
2020/12/06 04:49:42;;;;;;;69.22;27.52;;;;;;;2.36;100.00;98704.44;10497038;28;20054;-69
2020/12/06 04:54:50;;;;;;;63.45;25.98;;;;;;;2.34;100.00;98674.41;10493811;28;20113;-69
2020/12/06 04:59:52;;;;;;;65.53;27.30;;;;;;;2.32;100.00;98687.41;10493649;28;20049;-69
2020/12/06 05:04:59;;;;;;;66.32;26.88;;;;;;;2.41;100.00;98678.38;10492396;28;20052;-69
2020/12/06 05:10:00;;;;;;;62.45;26.38;;;;;;;2.31;100.00;98675.41;10492881;28;21069;-69
2020/12/06 05:15:02;;;;;;;58.35;25.40;;;;;;;2.33;100.00;98681.34;10492931;28;20132;-69
2020/12/06 05:20:11;;;;;;;67.63;26.77;;;;;;;2.44;100.00;98679.06;10493314;28;20049;-69
2020/12/06 05:25:16;;;;;;;55.88;24.23;;;;;;;2.37;100.00;98706.09;10492542;28;20109;-70
2020/12/06 05:30:18;;;;;;;61.13;25.50;;;;;;;2.42;100.00;98687.81;10491284;28;20048;-69
2020/12/06 05:35:19;;;;;;;54.63;23.58;;;;;;;2.42;100.00;98662.84;10492878;28;20106;-69
2020/12/06 05:40:20;;;;;;;56.50;23.45;;;;;;;2.41;100.00;98676.66;10492253;28;20049;-70
2020/12/06 05:45:21;;;;;;;55.88;24.25;;;;;;;2.40;100.00;98674.97;10492161;28;20048;-69
2020/12/06 05:50:22;;;;;;;51.63;22.48;;;;;;;2.41;100.00;98675.81;10492015;28;20055;-70
2020/12/06 05:55:24;;;;;;;53.00;22.00;;;;;;;2.39;100.00;98656.97;10492221;28;20634;-70
2020/12/06 06:00:26;;;;;;;48.13;22.02;;;;;;;2.43;100.00;98638.69;10491315;28;20103;-70
2020/12/06 06:05:28;;;;;;;54.70;22.80;;;;;;;2.48;100.00;98656.53;10491636;28;20060;-70
2020/12/06 06:10:36;;;;;;;49.20;21.50;;;;;;;2.45;100.00;98688.47;10491404;28;20052;-70
2020/12/06 06:15:37;;;;;;;47.17;22.63;;;;;;;2.55;100.00;98681.97;10491769;28;20044;-70
2020/12/06 06:20:40;;;;;;;48.13;21.05;;;;;;;2.57;100.00;98674.97;10491684;28;20048;-70
2020/12/06 06:25:41;;;;;;;46.85;21.20;;;;;;;2.49;100.00;98659.00;10473707;28;20048;-70
2020/12/06 06:30:43;;;;;;;49.80;22.25;;;;;;;2.57;100.00;98666.41;10472678;28;20064;-70
2020/12/06 06:35:46;;;;;;;44.63;20.48;;;;;;;2.52;100.00;98682.13;10491511;28;20454;-70
2020/12/06 06:40:50;;;;;;;53.70;21.20;;;;;;;2.59;100.00;98691.22;10493530;28;20045;-70
2020/12/06 06:45:51;;;;;;;51.83;22.52;;;;;;;2.67;100.00;98697.75;10491223;28;20048;-69
2020/12/06 06:50:52;;;;;;;51.47;21.88;;;;;;;2.69;100.00;98699.38;10490570;28;20041;-70
2020/12/06 06:55:56;;;;;;;52.78;23.92;;;;;;;2.74;100.00;98709.47;10491235;28;20537;-70
2020/12/06 07:01:23;;;;;;;52.67;23.60;;;;;;;2.78;100.00;98705.81;10489595;28;20423;-71
2020/12/06 07:06:44;;;;;;;50.80;21.15;;;;;;;2.79;100.00;98715.25;10477952;28;20048;-70
2020/12/06 07:11:47;;;;;;;55.35;23.85;;;;;;;2.84;100.00;98726.19;10463046;28;20098;-70
2020/12/06 07:16:48;;;;;;;54.15;22.60;;;;;;;2.85;100.00;98733.84;10498611;28;20052;-70
2020/12/06 07:21:50;;;;;;;53.28;23.77;;;;;;;2.93;100.00;98742.06;10478561;28;20049;-69
2020/12/06 07:26:52;;;;;;;53.22;23.33;;;;;;;2.95;100.00;98739.38;10456777;28;20470;-70
2020/12/06 07:31:53;;;;;;;56.30;23.75;;;;;;;2.92;100.00;98735.22;10455842;28;20098;-70
2020/12/06 07:36:54;;;;;;;55.05;22.63;;;;;;;2.89;100.00;98740.56;10459567;28;20048;-69
2020/12/06 07:41:55;;;;;;;54.88;23.17;;;;;;;2.92;100.00;98755.06;10498418;28;20040;-70
2020/12/06 07:47:00;;;;;;;59.63;24.52;;;;;;;2.95;100.00;98747.13;10497569;28;20496;-69
2020/12/06 07:52:18;;;;;;;59.63;25.40;;;;;;;2.95;100.00;98737.63;10496569;28;20048;-69
2020/12/06 07:57:37;;;;;;;59.05;25.58;;;;;;;2.94;100.00;98733.41;10497121;28;20101;-69
2020/12/06 08:02:45;;;;;;;60.15;24.95;;;;;;;2.98;100.00;98744.41;10495691;28;20458;-70
2020/12/06 08:07:50;;;;;;;60.75;24.58;;;;;;;2.99;100.00;98751.28;10496065;28;20056;-69
2020/12/06 08:12:54;;;;;;;58.65;24.58;;;;;;;3.04;100.00;98749.28;10478015;28;20053;-69
2020/12/06 08:17:56;;;;;;;57.90;24.17;;;;;;;3.02;100.00;98751.09;10454908;28;20049;-69
2020/12/06 08:22:59;;;;;;;58.20;24.80;;;;;;;3.08;100.00;98750.81;10453911;28;20504;-69
2020/12/06 08:28:02;;;;;;;51.75;21.95;;;;;;;3.09;100.00;98749.06;10454741;28;20057;-69
2020/12/06 08:33:04;;;;;;;49.58;20.75;;;;;;;3.21;100.00;98749.25;10452684;28;20045;-69
2020/12/06 08:38:24;;;;;;;43.80;18.70;;;;;;;3.18;100.00;98746.00;10436288;28;20598;-69
2020/12/06 08:43:46;;;;;;;46.75;19.42;;;;;;;3.24;100.00;98769.81;10464393;28;20499;-70
2020/12/06 08:48:49;;;;;;;41.20;17.42;;;;;;;3.26;100.00;98786.06;10494691;28;20648;-70
2020/12/06 08:53:50;;;;;;;45.30;18.48;;;;;;;3.26;100.00;98765.38;10494105;28;20048;-70
2020/12/06 08:58:51;;;;;;;38.50;16.48;;;;;;;3.36;100.00;98761.41;10494828;28;20052;-70
2020/12/06 09:03:52;;;;;;;33.60;16.23;;;;;;;3.31;100.00;98758.22;10493330;28;20424;-70
2020/12/06 09:08:53;;;;;;;33.38;15.02;;;;;;;3.45;100.00;98724.72;10494035;28;20052;-71
2020/12/06 09:13:54;;;;;;;27.17;13.27;;;;;;;3.44;100.00;98722.22;10466623;28;20052;-70
2020/12/06 09:18:55;;;;;;;31.17;14.20;;;;;;;3.59;100.00;98725.75;10481885;28;20049;-71
2020/12/06 09:23:56;;;;;;;29.42;14.23;;;;;;;3.63;100.00;98732.44;10466799;28;20044;-69
2020/12/06 09:28:58;;;;;;;31.40;12.60;;;;;;;3.55;100.00;98744.94;10451702;28;20054;-69
2020/12/06 09:33:59;;;;;;;27.45;12.75;;;;;;;3.57;100.00;98763.78;10450460;28;20059;-68
2020/12/06 09:39:00;;;;;;;26.65;13.07;;;;;;;3.69;100.00;98758.81;10451400;28;20487;-69
2020/12/06 09:44:05;;;;;;;24.15;10.93;;;;;;;3.76;100.00;98770.50;10433481;28;20175;-69
2020/12/06 09:49:06;;;;;;;23.70;11.45;;;;;;;3.83;100.00;98752.91;10451310;28;20622;-70
2020/12/06 09:54:07;;;;;;;22.15;11.38;;;;;;;3.92;100.00;98744.66;10451048;28;20044;-69
2020/12/06 09:59:07;;;;;;;19.95;10.50;;;;;;;3.92;100.00;98738.63;10451604;28;20084;-69
2020/12/06 10:04:08;;;;;;;22.80;12.38;;;;;;;3.99;100.00;98740.84;10449912;28;20045;-70
2020/12/06 10:09:09;;;;;;;19.80;10.30;;;;;;;3.96;100.00;98759.13;10450973;28;20128;-69
2020/12/06 10:14:10;;;;;;;17.98;9.68;;;;;;;3.85;100.00;98758.84;10479128;28;20045;-70
2020/12/06 10:19:11;;;;;;;18.52;9.80;;;;;;;3.91;100.00;98763.72;10491770;28;20060;-69
2020/12/06 10:24:12;;;;;;;21.20;10.93;;;;;;;3.99;100.00;98748.59;10492074;28;20526;-69
2020/12/06 10:29:13;;;;;;;20.67;11.02;;;;;;;4.14;100.00;98739.16;10492136;28;20048;-69
2020/12/06 10:34:14;;;;;;;20.88;10.35;;;;;;;4.36;100.00;98733.63;10490482;28;20492;-70
2020/12/06 10:39:15;;;;;;;19.20;10.07;;;;;;;4.35;100.00;98731.97;10494279;28;20044;-70
2020/12/06 10:44:16;;;;;;;20.02;9.68;;;;;;;4.43;100.00;98740.97;10499230;28;20446;-70
2020/12/06 10:49:18;;;;;;;23.60;11.82;;;;;;;4.62;100.00;98730.44;10499772;28;20106;-70
2020/12/06 10:54:19;;;;;;;17.20;9.32;;;;;;;4.74;100.00;98750.44;10501630;28;20048;-70
2020/12/06 10:59:20;;;;;;;22.75;12.50;;;;;;;4.84;100.00;98746.41;10498673;28;20045;-71
2020/12/06 11:04:20;;;;;;;17.48;9.75;;;;;;;4.90;100.00;98738.28;10480080;28;20052;-70
2020/12/06 11:09:21;;;;;;;14.80;8.45;;;;;;;4.98;100.00;98730.88;10498612;28;20154;-69
2020/12/06 11:14:22;;;;;;;20.85;10.25;;;;;;;4.88;100.00;98721.13;10467275;28;20552;-71
2020/12/06 11:19:23;;;;;;;19.75;10.27;;;;;;;4.94;100.00;98737.16;10456365;28;20071;-70
2020/12/06 11:24:24;;;;;;;21.15;12.35;;;;;;;4.77;100.00;98719.19;10456371;28;20132;-70
2020/12/06 11:29:25;;;;;;;21.48;12.40;;;;;;;4.82;100.00;98722.34;10456504;28;20049;-70
2020/12/06 11:34:26;;;;;;;34.40;17.75;;;;;;;4.85;100.00;98727.34;10455095;28;20053;-70
2020/12/06 11:39:27;;;;;;;26.50;14.90;;;;;;;4.74;100.00;98708.97;10455770;28;20053;-70
2020/12/06 11:44:28;;;;;;;28.02;14.90;;;;;;;4.69;100.00;98703.22;10455664;28;20049;-70
2020/12/06 11:49:29;;;;;;;32.13;18.40;;;;;;;4.58;100.00;98709.00;10517464;22;20048;-70
2020/12/06 11:54:30;;;;;;;32.42;17.85;;;;;;;4.55;100.00;98724.75;10503333;28;20074;-70
2020/12/06 11:59:31;;;;;;;31.58;17.63;;;;;;;4.50;100.00;98731.94;10465034;28;20059;-71
2020/12/06 12:04:33;;;;;;;41.80;22.67;;;;;;;4.52;100.00;98750.00;10436684;28;20077;-71
2020/12/06 12:09:34;;;;;;;34.60;19.55;;;;;;;4.57;100.00;98753.16;10454674;28;20057;-71
2020/12/06 12:14:35;;;;;;;36.58;20.45;;;;;;;4.71;100.00;98758.41;10450560;28;20044;-71
2020/12/06 12:19:36;;;;;;;40.75;21.50;;;;;;;4.74;100.00;98761.63;10495794;28;20049;-72
2020/12/06 12:24:37;;;;;;;37.70;19.92;;;;;;;4.65;100.00;98766.50;10495755;28;20056;-71
2020/12/06 12:29:38;;;;;;;40.92;21.88;;;;;;;4.73;100.00;98739.22;10495673;28;20056;-72
2020/12/06 12:34:39;;;;;;;43.55;21.25;;;;;;;4.64;100.00;98720.78;10494538;28;20048;-71
2020/12/06 12:39:40;;;;;;;44.63;23.08;;;;;;;4.73;100.00;98734.06;10495580;28;20052;-71
2020/12/06 12:44:41;;;;;;;45.20;22.50;;;;;;;4.68;100.00;98720.53;10477881;28;20517;-71
2020/12/06 12:49:43;;;;;;;46.17;22.65;;;;;;;4.76;100.00;98712.31;10438761;28;20049;-71
2020/12/06 12:54:44;;;;;;;45.13;21.00;;;;;;;4.73;100.00;98702.13;10436110;28;20095;-71
2020/12/06 12:59:45;;;;;;;52.75;24.90;;;;;;;4.78;100.00;98707.03;10453483;28;20526;-70
2020/12/06 13:04:46;;;;;;;48.78;23.23;;;;;;;4.58;100.00;98708.19;10451629;28;20416;-71
2020/12/06 13:09:47;;;;;;;48.05;22.75;;;;;;;4.57;100.00;98694.38;10452715;28;20048;-71
2020/12/06 13:14:48;;;;;;;49.40;22.88;;;;;;;4.52;100.00;98708.56;10452942;28;20053;-71
2020/12/06 13:19:49;;;;;;;46.78;21.83;;;;;;;4.68;100.00;98704.13;10452451;28;20131;-71
2020/12/06 13:24:50;;;;;;;54.45;24.70;;;;;;;4.81;100.00;98689.56;10453075;28;20059;-71
2020/12/06 13:29:51;;;;;;;52.58;25.05;;;;;;;4.79;100.00;98696.59;10452142;28;20595;-71
2020/12/06 13:34:52;;;;;;;51.05;23.75;;;;;;;4.78;100.00;98678.53;10451459;28;20049;-71
2020/12/06 13:39:53;;;;;;;51.53;23.25;;;;;;;4.71;100.00;98655.56;10452208;28;20388;-71
2020/12/06 13:44:54;;;;;;;52.30;23.40;;;;;;;4.61;100.00;98656.19;10452639;28;20087;-71
2020/12/06 13:49:55;;;;;;;53.83;25.15;;;;;;;4.63;100.00;98650.00;10452278;28;20060;-71
2020/12/06 13:54:58;;;;;;;52.10;25.48;;;;;;;4.63;100.00;98638.78;10452729;28;20049;-71
2020/12/06 13:59:59;;;;;;;52.85;24.42;;;;;;;4.66;100.00;98661.94;10451238;28;20056;-71
2020/12/06 14:05:00;;;;;;;48.42;23.25;;;;;;;4.71;100.00;98678.91;10450787;28;20045;-70
2020/12/06 14:10:01;;;;;;;54.90;25.20;;;;;;;4.65;100.00;98674.06;10451199;28;20139;-71
2020/12/06 14:15:02;;;;;;;55.90;27.27;;;;;;;4.50;100.00;98677.53;10492443;28;20480;-71
2020/12/06 14:20:03;;;;;;;53.55;25.55;;;;;;;4.48;100.00;98673.34;10501636;28;20131;-71
2020/12/06 14:25:05;;;;;;;51.60;25.23;;;;;;;4.47;100.00;98669.13;10502070;28;20048;-71
2020/12/06 14:30:06;;;;;;;60.40;27.95;;;;;;;4.52;100.00;98667.09;10500302;28;20535;-70
2020/12/06 14:35:08;;;;;;;59.92;27.48;;;;;;;4.44;100.00;98674.47;10500864;28;20139;-70
2020/12/06 14:40:09;;;;;;;55.60;26.27;;;;;;;4.42;100.00;98671.94;10499511;28;20044;-70
2020/12/06 14:45:10;;;;;;;56.47;27.08;;;;;;;4.40;100.00;98666.03;10482362;28;20397;-70
2020/12/06 14:50:11;;;;;;;56.05;27.95;;;;;;;4.40;100.00;98678.16;10499374;28;20078;-70
2020/12/06 14:55:12;;;;;;;65.40;30.38;;;;;;;4.35;100.00;98695.69;10462873;28;20510;-70
2020/12/06 15:00:14;;;;;;;62.42;29.55;;;;;;;4.36;100.00;98716.34;10457050;28;20049;-70
2020/12/06 15:05:15;;;;;;;56.78;27.70;;;;;;;4.30;100.00;98724.44;10458237;28;20090;-70
2020/12/06 15:10:16;;;;;;;57.95;29.55;;;;;;;4.30;100.00;98730.47;10458526;28;20136;-71
2020/12/06 15:15:17;;;;;;;57.63;28.50;;;;;;;4.21;100.00;98733.56;10459358;28;20056;-71
2020/12/06 15:20:18;;;;;;;56.70;27.92;;;;;;;4.19;100.00;98740.56;10459856;28;20045;-70
2020/12/06 15:25:19;;;;;;;62.70;31.10;;;;;;;4.20;100.00;98729.31;10461729;28;20107;-71
2020/12/06 15:30:19;;;;;;;54.97;27.15;;;;;;;4.10;100.00;98720.38;10461585;28;20080;-70
2020/12/06 15:35:22;;;;;;;63.40;28.88;;;;;;;4.09;100.00;98713.53;10459250;28;20059;-73
2020/12/06 15:40:23;;;;;;;59.00;28.73;;;;;;;4.06;100.00;98699.91;10459246;28;20045;-72
2020/12/06 15:45:24;;;;;;;61.03;29.17;;;;;;;4.09;100.00;98695.41;10457956;28;20480;-71
2020/12/06 15:50:26;;;;;;;65.13;30.58;;;;;;;4.06;100.00;98700.75;10458279;28;20574;-72
2020/12/06 15:55:27;;;;;;;59.00;28.63;;;;;;;4.02;100.00;98709.59;10456364;28;20458;-71
2020/12/06 16:00:28;;;;;;;60.90;29.15;;;;;;;3.99;100.00;98699.41;10455841;28;20048;-71
2020/12/06 16:05:28;;;;;;;55.15;26.48;;;;;;;4.01;100.00;98697.59;10456666;28;20045;-71
2020/12/06 16:10:31;;;;;;;56.45;27.83;;;;;;;4.04;100.00;98702.59;10494993;28;20136;-72
2020/12/06 16:15:32;;;;;;;61.67;31.35;;;;;;;4.03;100.00;98716.44;10458981;28;20049;-71
2020/12/06 16:20:33;;;;;;;55.83;27.80;;;;;;;4.03;100.00;98706.09;10455659;28;20119;-71
2020/12/06 16:25:34;;;;;;;57.88;27.80;;;;;;;4.02;100.00;98706.16;10455355;28;20508;-70
2020/12/06 16:30:39;;;;;;;62.38;29.80;;;;;;;4.03;100.00;98700.91;10453666;28;20087;-71
2020/12/06 16:35:39;;;;;;;61.17;29.63;;;;;;;4.00;100.00;98719.22;10453693;28;20099;-71
2020/12/06 16:40:40;;;;;;;63.17;31.05;;;;;;;3.98;100.00;98728.81;10453728;28;20103;-71
2020/12/06 16:45:41;;;;;;;61.42;29.48;;;;;;;3.97;100.00;98729.72;10471893;28;20132;-71
2020/12/06 16:50:42;;;;;;;60.90;30.35;;;;;;;3.98;100.00;98733.13;10494546;28;20049;-71
2020/12/06 16:55:44;;;;;;;58.00;28.00;;;;;;;4.02;100.00;98739.81;10495761;28;20053;-71
2020/12/06 17:00:45;;;;;;;58.50;27.88;;;;;;;4.01;100.00;98718.28;10482329;28;20044;-73
2020/12/06 17:05:48;;;;;;;57.03;27.60;;;;;;;3.94;100.00;98709.19;10453381;28;20053;-71
2020/12/06 17:10:49;;;;;;;59.10;28.98;;;;;;;3.95;100.00;98703.09;10453165;28;20079;-71
2020/12/06 17:15:50;;;;;;;50.97;25.48;;;;;;;3.90;100.00;98699.91;10454007;28;20481;-72
2020/12/06 17:20:51;;;;;;;55.22;26.83;;;;;;;3.96;100.00;98709.94;10454936;28;20049;-72
2020/12/06 17:25:52;;;;;;;56.50;26.58;;;;;;;3.91;100.00;98701.59;10472805;28;20048;-72
2020/12/06 17:30:53;;;;;;;55.83;26.40;;;;;;;3.86;100.00;98688.03;10452726;28;20048;-72
2020/12/06 17:35:54;;;;;;;56.67;26.20;;;;;;;3.87;100.00;98671.59;10457671;28;20124;-72
2020/12/06 17:40:55;;;;;;;51.70;26.02;;;;;;;3.87;100.00;98669.84;10451396;28;20041;-72
2020/12/06 17:45:56;;;;;;;60.95;27.17;;;;;;;3.87;100.00;98661.25;10453921;28;20084;-72
2020/12/06 17:50:57;;;;;;;63.53;29.83;;;;;;;3.90;100.00;98662.84;10453534;28;20045;-71
2020/12/06 17:55:58;;;;;;;83.85;38.60;;;;;;;3.87;100.00;98694.91;10498277;28;20048;-72
2020/12/06 18:00:59;;;;;;;78.60;36.33;;;;;;;3.86;100.00;98691.47;10494942;28;20054;-72
2020/12/06 18:06:00;;;;;;;62.30;30.15;;;;;;;3.85;100.00;98681.22;10493257;28;20083;-71
2020/12/06 18:11:02;;;;;;;70.18;31.48;;;;;;;3.85;100.00;98673.47;10490104;28;20064;-72
2020/12/06 18:16:03;;;;;;;66.60;30.65;;;;;;;3.82;100.00;98655.50;10451975;28;20084;-71
2020/12/06 18:21:04;;;;;;;73.80;33.58;;;;;;;3.86;100.00;98649.22;10450373;28;20045;-72
2020/12/06 18:26:05;;;;;;;73.43;37.30;;;;;;;3.90;100.00;98658.50;10450915;28;20650;-71
2020/12/06 18:31:06;;;;;;;72.75;34.67;;;;;;;3.94;100.00;98660.00;10432407;28;20048;-71
2020/12/06 18:36:07;;;;;;;71.47;32.55;;;;;;;3.87;100.00;98659.50;10451518;28;20057;-71
2020/12/06 18:41:08;;;;;;;74.95;33.03;;;;;;;3.84;100.00;98653.66;10450579;28;20045;-72
2020/12/06 18:46:13;;;;;;;66.25;32.50;;;;;;;3.89;100.00;98656.84;10450408;28;20500;-70
2020/12/06 18:51:15;;;;;;;70.00;32.83;;;;;;;3.84;100.00;98645.91;10456246;28;20048;-70
2020/12/06 18:56:16;;;;;;;67.90;32.38;;;;;;;3.82;100.00;98671.03;10492497;28;20102;-70
2020/12/06 19:01:18;;;;;;;73.00;32.90;;;;;;;3.85;100.00;98686.41;10477556;28;20127;-70
2020/12/06 19:06:22;;;;;;;72.65;32.63;;;;;;;3.90;100.00;98681.81;10500086;28;20114;-71
2020/12/06 19:11:23;;;;;;;71.35;33.28;;;;;;;3.89;100.00;98651.66;10499928;28;20079;-72
2020/12/06 19:16:24;;;;;;;63.45;29.73;;;;;;;3.88;100.00;98644.81;10500096;28;20095;-71
2020/12/06 19:21:25;;;;;;;67.25;31.77;;;;;;;3.80;100.00;98632.31;10499540;28;20040;-72
2020/12/06 19:26:26;;;;;;;67.63;31.80;;;;;;;3.86;100.00;98639.72;10496594;28;20301;-72
2020/12/06 19:31:27;;;;;;;68.93;32.17;;;;;;;3.83;100.00;98652.00;10456954;28;20053;-71
2020/12/06 19:36:28;;;;;;;68.10;32.63;;;;;;;3.82;100.00;98663.25;10457896;28;20049;-72
2020/12/06 19:41:34;;;;;;;62.72;30.35;;;;;;;3.87;100.00;98669.00;10472285;28;20047;-72
2020/12/06 19:46:36;;;;;;;68.50;31.90;;;;;;;3.91;100.00;98651.59;10456181;28;20045;-72
2020/12/06 19:51:38;;;;;;;63.22;30.30;;;;;;;3.79;100.00;98642.75;10454714;28;20041;-72
2020/12/06 19:56:38;;;;;;;67.07;31.80;;;;;;;3.83;100.00;98662.34;10456589;28;20187;-72
2020/12/06 20:01:39;;;;;;;61.63;30.33;;;;;;;3.86;100.00;98646.63;10455050;28;20049;-72
2020/12/06 20:06:40;;;;;;;61.63;30.05;;;;;;;3.87;100.00;98645.72;10456153;28;20056;-70
2020/12/06 20:11:42;;;;;;;60.25;30.23;;;;;;;3.86;100.00;98657.00;10462306;28;20048;-71
2020/12/06 20:16:42;;;;;;;65.72;30.92;;;;;;;3.88;100.00;98652.56;10496028;28;20071;-71
2020/12/06 20:21:44;;;;;;;58.28;29.02;;;;;;;3.85;100.00;98645.84;10494909;28;20056;-72
2020/12/06 20:26:48;;;;;;;56.95;29.00;;;;;;;3.95;100.00;98633.22;10494546;28;20067;-72
2020/12/06 20:31:49;;;;;;;60.10;27.95;;;;;;;3.76;100.00;98624.78;10494259;28;20048;-72
2020/12/06 20:36:51;;;;;;;64.18;31.42;;;;;;;3.85;100.00;98624.28;10495454;28;20102;-72
2020/12/06 20:41:53;;;;;;;58.47;29.38;;;;;;;3.82;100.00;98620.09;10494701;28;20048;-71
2020/12/06 20:46:56;;;;;;;60.30;29.73;;;;;;;3.80;100.00;98613.38;10476627;28;20106;-72
2020/12/06 20:52:03;;;;;;;61.83;28.60;;;;;;;3.80;100.00;98590.06;10491269;28;20408;-72
2020/12/06 20:57:04;;;;;;;59.00;28.30;;;;;;;3.74;100.00;98618.88;10494330;28;20074;-72
2020/12/06 21:02:05;;;;;;;57.83;28.08;;;;;;;3.77;100.00;98616.94;10493968;28;20052;-72
2020/12/06 21:07:06;;;;;;;58.78;28.30;;;;;;;3.76;100.00;98623.03;10494158;28;20537;-72
2020/12/06 21:12:07;;;;;;;53.25;26.75;;;;;;;3.74;100.00;98636.97;10482860;28;20056;-73
2020/12/06 21:17:09;;;;;;;57.83;29.10;;;;;;;3.73;100.00;98645.66;10454390;28;20052;-73
2020/12/06 21:22:10;;;;;;;59.05;29.25;;;;;;;3.76;100.00;98645.47;10472529;28;20044;-72
2020/12/06 21:27:11;;;;;;;54.75;28.02;;;;;;;3.78;100.00;98654.84;10509141;28;20056;-72
2020/12/06 21:32:12;;;;;;;58.97;29.92;;;;;;;3.80;100.00;98650.44;10504372;28;20059;-73
2020/12/06 21:37:13;;;;;;;58.47;29.10;;;;;;;3.76;100.00;98630.78;10500207;28;20045;-72
2020/12/06 21:42:13;;;;;;;57.83;27.33;;;;;;;3.75;100.00;98633.47;10498432;28;20055;-72
2020/12/06 21:47:14;;;;;;;54.05;26.75;;;;;;;3.74;100.00;98632.63;10494939;28;20084;-72
2020/12/06 21:52:15;;;;;;;53.53;27.38;;;;;;;3.76;100.00;98630.78;10494027;28;20041;-72
2020/12/06 21:57:16;;;;;;;57.47;27.50;;;;;;;3.71;100.00;98634.53;10493917;28;20484;-72
2020/12/06 22:02:19;;;;;;;53.42;27.33;;;;;;;3.66;100.00;98633.97;10492545;28;20045;-71
2020/12/06 22:07:20;;;;;;;59.70;28.42;;;;;;;3.73;100.00;98632.72;10494139;28;20052;-71
2020/12/06 22:12:21;;;;;;;56.40;28.08;;;;;;;3.68;100.00;98634.72;10476973;28;20044;-70
2020/12/06 22:17:22;;;;;;;57.28;27.20;;;;;;;3.67;100.00;98635.63;10452017;28;20052;-71
2020/12/06 22:22:23;;;;;;;54.97;26.95;;;;;;;3.66;100.00;98639.13;10451317;28;20664;-71
2020/12/06 22:27:25;;;;;;;54.35;25.95;;;;;;;3.57;100.00;98618.94;10451819;28;20478;-70
2020/12/06 22:32:26;;;;;;;56.25;26.95;;;;;;;3.58;100.00;98626.63;10450560;28;20508;-70
2020/12/06 22:37:30;;;;;;;55.75;27.05;;;;;;;3.58;100.00;98624.03;10458736;28;20164;-70
2020/12/06 22:42:32;;;;;;;56.22;27.95;;;;;;;3.58;100.00;98618.03;10459992;28;20048;-71
2020/12/06 22:47:34;;;;;;;55.33;26.35;;;;;;;3.52;100.00;98626.94;10459224;28;20562;-71
2020/12/06 22:52:35;;;;;;;56.72;27.92;;;;;;;3.49;100.00;98621.97;10461158;28;20045;-71